This is the latest recevied weather packets stored in our database for station/object SP2NBH-2. If no packets are shown the sender has not sent any weather packets the latest 10 day(s).
| Time | Temp. | Humidity | Pressure | Rain* | Wind** | Luminosity | Snow |
|---|---|---|---|---|---|---|---|
| 1777901876 | 24.44° C | 42% | 1011.1 hPa | - | - | - | - |
| 1777900976 | 23.33° C | 43% | 1011.2 hPa | - | - | - | - |
| 1777900111 | 17.22° C | 56% | 1011 hPa | - | - | - | - |
| 1777900076 | 17.22° C | 56% | 1011 hPa | - | - | - | - |
| 1777898276 | 21.67° C | 51% | 1011.2 hPa | - | - | - | - |
| 1777897376 | 17.78° C | 57% | 1011.1 hPa | - | - | - | - |
| 1777896476 | 17.78° C | 57% | 1011 hPa | - | - | - | - |
| 1777894676 | 20.56° C | 48% | 1010.7 hPa | - | - | - | - |
| 1777893776 | 24.44° C | 41% | 1010.7 hPa | - | - | - | - |
| 1777892875 | 22.22° C | 45% | 1010.7 hPa | - | - | - | - |
| 1777891075 | 23.89° C | 40% | 1011 hPa | - | - | - | - |
| 1777890175 | 21.67° C | 44% | 1011.1 hPa | - | - | - | - |
| 1777889275 | 27.22° C | 30% | 1010.9 hPa | - | - | - | - |
| 1777887570 | 25.56° C | 35% | 1011 hPa | - | - | - | - |
| 1777886670 | 25° C | 36% | 1010.9 hPa | - | - | - | - |
| 1777885770 | 22.78° C | 38% | 1011 hPa | - | - | - | - |
| 1777884869 | 23.33° C | 38% | 1010.9 hPa | - | - | - | - |
| 1777883969 | 24.44° C | 37% | 1011 hPa | - | - | - | - |
| 1777883069 | 23.89° C | 38% | 1011 hPa | - | - | - | - |
| 1777882169 | 25° C | 37% | 1011 hPa | - | - | - | - |
| 1777881269 | 23.89° C | 38% | 1010.9 hPa | - | - | - | - |
| 1777879470 | 24.44° C | 35% | 1010.5 hPa | - | - | - | - |
| 1777878570 | 25° C | 34% | 1010.5 hPa | - | - | - | - |
| 1777877670 | 21.67° C | 39% | 1010.6 hPa | - | - | - | - |
| 1777876770 | 20.56° C | 40% | 1010.6 hPa | - | - | - | - |
* Rain since midnight (hover to see other rain measurements)
** Current wind speed in m/s (hover to see current wind gust speed)